Saturday, July 21, 2018, 10:08 PM CDT
Back to Local

KMDW, Chicago Midway Airport

Location: Chicago, IL, United States Lat: 41.783
Local Time: 10:08 PM CDT ( 3:08 GMT) Lon: -87.75
Time Zone: US/Central Elev: 620 ft

Show me the last for .
Show Decoded

2018-07-21 21:53 METAR KMDW 220253Z 35010KT 5SM -RA BR OVC012 21/20 A2981 RMK AO2 RAB45 SLP087
                 P0000 60000 T02110200 51008 $ =
2018-07-21 20:53 METAR KMDW 220153Z 36016KT 10SM BKN014 OVC021 22/19 A2981 RMK AO2 SLP085
                 T02170194 $ =
2018-07-21 20:15 METAR KMDW 220115Z 36013KT 10SM BKN017 BKN036 OVC046 22/19 A2980 RMK AO2
                 T02220194 $ =
2018-07-21 19:53 METAR KMDW 220053Z 01012KT 10SM FEW018 FEW036 BKN046 BKN250 23/19 A2979 RMK AO2
                 SLP080 T02280189 $ =
2018-07-21 18:53 METAR KMDW 212353Z 03009KT 10SM FEW023 BKN038 BKN045 BKN250 24/19 A2978 RMK AO2
                 SLP076 60000 T02390189 10256 20233 50001 $ =
2018-07-21 17:53 METAR KMDW 212253Z 36010KT 10SM FEW021 BKN036 BKN043 BKN250 23/19 A2979 RMK AO2
                 SLP078 VCSH SW T02330189 $ =
2018-07-21 16:53 METAR KMDW 212153Z 35010KT 10SM SCT021 BKN040 BKN060 25/19 A2978 RMK AO2 RAE13
                 SLP076 P0000 T02500194 $ =
2018-07-21 16:29 METAR KMDW 212129Z 01009KT 10SM FEW021 BKN040 BKN050 24/19 A2978 RMK AO2 RAE13
                 P0000 T02390194 $ =
2018-07-21 15:53 METAR KMDW 212053Z 35013G22KT 8SM -RA BKN022 OVC037 23/19 A2978 RMK AO2 RAB52
                 SLP076 P0000 60000 T02330189 53008 $ =
2018-07-21 14:53 METAR KMDW 211953Z 35014G23KT 10SM SCT021 BKN055 BKN070 24/19 A2977 RMK AO2
                 SLP071 T02390189 $ =
2018-07-21 13:53 METAR KMDW 211853Z 01013KT 10SM BKN023 BKN049 BKN060 24/19 A2976 RMK AO2 PK WND
                 01028/1837 SLP069 T02440194 $ =
2018-07-21 12:53 METAR KMDW 211753Z 36014G21KT 10SM FEW014 SCT021 BKN037 24/19 A2975 RMK AO2
                 SLP067 60001 T02390194 10239 20211 50009 $ =
2018-07-21 12:37 METAR KMDW 211737Z 36014G21KT 10SM FEW014 SCT021 BKN037 23/19 A2975 RMK AO2
                 T02280189 $ =
2018-07-21 12:15 METAR KMDW 211715Z 36013KT 10SM SCT014 BKN021 OVC034 22/19 A2976 RMK AO2
                 T02220194 $ =
2018-07-21 11:53 METAR KMDW 211653Z 36016G21KT 8SM BKN012 OVC016 22/19 A2976 RMK AO2 PK WND
                 35027/1635 SLP069 T02170194 $ =
2018-07-21 10:53 METAR KMDW 211553Z 36013KT 6SM BR OVC011 21/20 A2975 RMK AO2 SLP066 T02110200 $
                 =
2018-07-21 10:32 METAR KMDW 211532Z 35017G22KT 9SM BKN011 OVC014 21/20 A2974 RMK AO2 T02110200 $
                 =
2018-07-21 09:53 METAR KMDW 211453Z 35017G23KT 10SM OVC009 21/20 A2973 RMK AO2 RAB1357E26B34E44
                 SLP058 P0001 60001 T02110200 51015 $ =
2018-07-21 09:28 METAR KMDW 211428Z 35014KT 7SM OVC009 21/21 A2972 RMK AO2 RAB1357E26 P0001
                 T02110206 $ =
2018-07-21 08:53 METAR KMDW 211353Z 33012G20KT 10SM FEW006 BKN011 OVC016 21/20 A2971 RMK AO2
                 RAB26E43 SLP053 P0000 T02110200 $ =
2018-07-21 08:36 METAR KMDW 211336Z 33012KT 10SM -RA SCT006 BKN011 OVC016 21/20 A2971 RMK AO2
                 RAB26 P0000 T02110200 $ =
2018-07-21 08:29 METAR KMDW 211329Z 33012KT 2 1/2SM -RA BR BKN009 OVC014 21/20 A2971 RMK AO2 VIS
                 1 3/4V5 RAB26 P0000 T02110200 $ =
2018-07-21 07:53 METAR KMDW 211253Z 33009KT 10SM SCT010 BKN012 OVC019 21/20 A2970 RMK AO2 SLP048
                 T02110200 $ =
2018-07-21 07:39 METAR KMDW 211239Z 33010KT 10SM SCT010 BKN014 OVC023 21/20 A2970 RMK AO2
                 T02110200 $ =
2018-07-21 07:23 METAR KMDW 211223Z 33013KT 10SM SCT010 BKN016 OVC023 21/20 A2969 RMK AO2
                 T02110200 $ =
2018-07-21 06:53 METAR KMDW 211153Z 33012KT 10SM BKN012 BKN018 OVC025 21/19 A2968 RMK AO2
                 RAB1055E08 SLP043 P0001 60001 70052 T02110194 10211 20206 53016 $ =
2018-07-21 05:53 METAR KMDW 211053Z 32009KT 7SM BKN014 BKN026 OVC035 21/20 A2967 RMK AO2
                 RAB0955E51 SLP038 P0000 T02110200 $ =
2018-07-21 04:53 METAR KMDW 210953Z 31008KT 8SM BKN014 BKN019 OVC026 21/20 A2965 RMK AO2 SLP032
                 T02110200 $ =
2018-07-21 03:53 METAR KMDW 210853Z 29008KT 10SM BKN010 OVC019 21/20 A2964 RMK AO2 SLP027
                 T02110200 57001 $ =
2018-07-21 02:53 METAR KMDW 210753Z 30009KT 10SM SCT010 OVC019 21/21 A2964 RMK AO2 SLP027
                 T02110206 $ =
2018-07-21 01:53 METAR KMDW 210653Z 30007KT 10SM FEW013 BKN025 OVC043 21/21 A2964 RMK AO2 SLP028
                 T02110206 $ =
2018-07-21 01:30 METAR KMDW 210630Z 29006KT 10SM FEW007 SCT022 OVC043 21/21 A2964 RMK AO2
                 T02110206 $ =
2018-07-21 00:53 METAR KMDW 210553Z 28007KT 10SM BKN013 OVC022 21/21 A2964 RMK AO2 RAE40 SLP029
                 P0000 60011 T02110206 10217 20211 402670211 56007 $ =
2018-07-21 00:33 METAR KMDW 210533Z 28006KT 10SM -RA SCT006 BKN015 OVC022 21/21 A2964 RMK AO2
                 P0000 T02110206 $ =
2018-07-20 23:53 METAR KMDW 210453Z 30007KT 10SM -RA BKN008 OVC011 21/21 A2964 RMK AO2 SLP030
                 P0006 T02110206 $ =
2018-07-20 23:13 METAR KMDW 210413Z 27013KT 3SM -RA BR SCT008 BKN010 OVC016 21/20 A2963 RMK AO2
                 P0005 T02110200 $ =
2018-07-20 22:53 METAR KMDW 210353Z 25009KT 3SM -RA BR FEW011 BKN016 OVC022 21/20 A2964 RMK AO2
                 RAB31 SLP028 P0002 T02110200 $ =

Support USWX by starting your Amazon purchase here.